createdAt,value
2022-12-19T00:01:51.635Z,101532.38
2022-12-19T00:03:57.315Z,101525.06
2022-12-19T00:06:02.898Z,101527.25
2022-12-19T00:08:16.938Z,101508.00
2022-12-19T00:10:20.607Z,101517.75
2022-12-19T00:12:26.991Z,101506.59
2022-12-19T00:14:30.292Z,101501.72
2022-12-19T00:16:33.706Z,101508.41
2022-12-19T00:18:37.373Z,101504.44
2022-12-19T00:20:40.676Z,101485.72
2022-12-19T00:22:43.940Z,101499.41
2022-12-19T00:24:47.234Z,101490.97
2022-12-19T00:26:51.260Z,101494.28
2022-12-19T00:28:58.198Z,101508.91
2022-12-19T00:31:01.681Z,101503.00
2022-12-19T00:33:04.969Z,101506.47
2022-12-19T00:35:08.707Z,101499.56
2022-12-19T00:37:12.223Z,101503.13
2022-12-19T00:39:15.601Z,101509.81
2022-12-19T00:41:21.386Z,101498.00
2022-12-19T00:43:25.075Z,101480.31
2022-12-19T00:45:29.865Z,101496.06
2022-12-19T00:47:34.281Z,101476.97
2022-12-19T00:49:38.393Z,101463.28
2022-12-19T00:51:42.324Z,101459.28
2022-12-19T00:53:48.297Z,101462.25
2022-12-19T00:55:51.885Z,101475.16
2022-12-19T00:57:55.499Z,101489.41
2022-12-19T01:00:03.068Z,101499.91
2022-12-19T01:02:07.875Z,101491.69
2022-12-19T01:04:31.843Z,101490.38
2022-12-19T01:06:38.225Z,101486.16
2022-12-19T01:08:42.560Z,101483.59
2022-12-19T01:10:46.906Z,101482.94
2022-12-19T01:12:49.640Z,101476.28
2022-12-19T01:14:54.710Z,101486.13
2022-12-19T01:17:00.802Z,101477.06
2022-12-19T01:19:05.669Z,101480.75
2022-12-19T01:21:11.910Z,101473.56
2022-12-19T01:23:16.798Z,101457.94
2022-12-19T01:25:20.489Z,101445.50
2022-12-19T01:27:23.915Z,101436.25
2022-12-19T01:29:27.505Z,101434.56
2022-12-19T01:31:31.829Z,101434.06
2022-12-19T01:33:35.333Z,101428.75
2022-12-19T01:35:40.354Z,101430.59
2022-12-19T01:37:43.845Z,101440.84
2022-12-19T01:39:47.417Z,101457.25
2022-12-19T01:41:50.851Z,101448.88
2022-12-19T01:44:00.494Z,101454.16
2022-12-19T01:46:07.149Z,101456.81
2022-12-19T01:48:18.416Z,101443.91
2022-12-19T01:50:29.655Z,101449.28
2022-12-19T01:52:34.524Z,101433.34
2022-12-19T01:54:41.825Z,101430.66
2022-12-19T01:56:49.825Z,101429.13
2022-12-19T01:59:05.775Z,101423.34
2022-12-19T02:01:13.186Z,101417.66
2022-12-19T02:03:24.626Z,101414.69
2022-12-19T02:05:28.279Z,101408.53
2022-12-19T02:07:32.821Z,101410.56
2022-12-19T02:09:38.257Z,101404.00
2022-12-19T02:11:41.759Z,101398.88
2022-12-19T02:13:46.808Z,101395.63
2022-12-19T02:16:00.292Z,101388.19
2022-12-19T02:18:13.285Z,101382.38
2022-12-19T02:20:41.460Z,101379.28
2022-12-19T02:23:01.746Z,101370.03
2022-12-19T02:25:41.998Z,101364.13
2022-12-19T02:28:17.926Z,101366.38
2022-12-19T02:30:42.343Z,101359.66
2022-12-19T02:32:50.836Z,101347.88
2022-12-19T02:35:03.734Z,101344.50
2022-12-19T02:37:11.819Z,101339.13
2022-12-19T02:39:20.274Z,101326.75
2022-12-19T02:41:30.636Z,101336.25
2022-12-19T02:43:41.752Z,101315.25
2022-12-19T02:45:49.160Z,101338.63
2022-12-19T02:47:53.046Z,101334.28
2022-12-19T02:49:58.265Z,101335.19
2022-12-19T02:52:10.196Z,101329.25
2022-12-19T02:54:13.593Z,101324.78
2022-12-19T02:56:30.734Z,101287.56
2022-12-19T02:58:46.661Z,101321.78
2022-12-19T03:01:03.430Z,101308.84
2022-12-19T03:03:13.162Z,101313.06
2022-12-19T03:05:26.814Z,101302.25
2022-12-19T03:07:40.938Z,101303.03
2022-12-19T03:09:52.768Z,101295.22
2022-12-19T03:12:04.284Z,101292.31
2022-12-19T03:14:11.964Z,101295.69
2022-12-19T03:16:16.845Z,101302.25
2022-12-19T03:18:21.096Z,101301.13
2022-12-19T03:20:33.267Z,101302.34
2022-12-19T03:22:36.876Z,101312.63
2022-12-19T03:24:40.800Z,101321.22
2022-12-19T03:26:51.567Z,101326.06
2022-12-19T03:28:59.577Z,101308.66
2022-12-19T03:31:05.295Z,101312.66
2022-12-19T03:33:12.960Z,101305.59
2022-12-19T03:35:21.403Z,101308.16
2022-12-19T03:37:29.438Z,101306.41
2022-12-19T03:39:33.852Z,101295.22
2022-12-19T03:41:56.863Z,101296.69
2022-12-19T03:44:00.508Z,101291.75
2022-12-19T03:46:10.030Z,101290.78
2022-12-19T03:48:20.433Z,101279.69
2022-12-19T03:50:29.799Z,101269.19
2022-12-19T03:52:40.676Z,101267.53
2022-12-19T03:54:53.751Z,101266.63
2022-12-19T03:57:03.994Z,101272.56
2022-12-19T03:59:10.599Z,101274.69
2022-12-19T04:01:14.353Z,101276.72
2022-12-19T04:03:20.510Z,101269.31
2022-12-19T04:05:26.128Z,101268.88
2022-12-19T04:07:30.108Z,101278.38
2022-12-19T04:09:34.981Z,101259.50
2022-12-19T04:11:43.025Z,101262.41
2022-12-19T04:13:56.936Z,101264.09
2022-12-19T04:16:07.830Z,101262.41
2022-12-19T04:18:14.660Z,101264.19
2022-12-19T04:20:22.116Z,101257.50
2022-12-19T04:22:30.489Z,101265.09
2022-12-19T04:24:37.258Z,101266.06
2022-12-19T04:26:45.618Z,101263.72
2022-12-19T04:28:52.820Z,101268.78
2022-12-19T04:30:56.347Z,101261.41
2022-12-19T04:33:00.151Z,101274.78
2022-12-19T04:35:04.204Z,101272.00
2022-12-19T04:37:09.771Z,101276.59
2022-12-19T04:39:13.222Z,101274.69
2022-12-19T04:41:16.606Z,101271.69
2022-12-19T04:43:19.908Z,101262.28
2022-12-19T04:45:23.385Z,101269.19
2022-12-19T04:47:27.474Z,101274.56
2022-12-19T04:49:31.126Z,101271.91
2022-12-19T04:51:34.591Z,101276.13
2022-12-19T04:53:39.427Z,101272.00
2022-12-19T04:55:44.143Z,101274.69
2022-12-19T04:57:49.364Z,101269.53
2022-12-19T04:59:52.670Z,101267.97
2022-12-19T05:01:56.357Z,101259.47
2022-12-19T05:04:04.371Z,101258.03
2022-12-19T05:06:11.330Z,101250.09
2022-12-19T05:08:14.688Z,101242.50
2022-12-19T05:10:19.828Z,101248.44
2022-12-19T05:12:23.174Z,101256.03
2022-12-19T05:14:26.762Z,101256.16
2022-12-19T05:16:31.034Z,101254.34
2022-12-19T05:18:35.611Z,101263.16
2022-12-19T05:20:39.305Z,101260.38
2022-12-19T05:22:42.676Z,101257.34
2022-12-19T05:24:46.029Z,101259.47
2022-12-19T05:26:51.188Z,101247.41
2022-12-19T05:28:54.929Z,101248.97
2022-12-19T05:31:04.193Z,101252.44
2022-12-19T05:33:09.540Z,101252.78
2022-12-19T05:35:12.950Z,101242.50
2022-12-19T05:37:16.440Z,101249.63
2022-12-19T05:39:19.813Z,101254.31
2022-12-19T05:41:23.530Z,101240.44
2022-12-19T05:43:28.904Z,101242.44
2022-12-19T05:45:32.250Z,101230.50
2022-12-19T05:47:37.975Z,101250.50
2022-12-19T05:49:41.605Z,101248.91
2022-12-19T05:51:47.979Z,101234.88
2022-12-19T05:53:52.001Z,101256.28
2022-12-19T05:56:04.856Z,101252.13
2022-12-19T05:58:08.317Z,101248.00
2022-12-19T06:00:14.567Z,101251.56
2022-12-19T06:02:18.127Z,101255.94
2022-12-19T06:04:21.607Z,101243.94
2022-12-19T06:06:26.695Z,101254.47
2022-12-19T06:08:30.130Z,101250.63
2022-12-19T06:10:33.897Z,101259.38
2022-12-19T06:12:37.361Z,101245.94
2022-12-19T06:14:41.167Z,101245.13
2022-12-19T06:16:45.916Z,101238.84
2022-12-19T06:18:49.692Z,101249.13
2022-12-19T06:20:57.982Z,101248.31
2022-12-19T06:23:02.146Z,101236.78
2022-12-19T06:25:06.297Z,101236.00
2022-12-19T06:27:09.949Z,101227.31
2022-12-19T06:29:13.332Z,101240.09
2022-12-19T06:31:17.137Z,101246.91
2022-12-19T06:33:24.702Z,101257.34
2022-12-19T06:35:28.199Z,101251.38
2022-12-19T06:37:31.963Z,101257.84
2022-12-19T06:39:35.258Z,101250.66
2022-12-19T06:41:56.387Z,101258.78
2022-12-19T06:44:00.166Z,101246.47
2022-12-19T06:46:03.543Z,101266.13
2022-12-19T06:48:07.421Z,101262.66
2022-12-19T06:50:12.133Z,101252.47
2022-12-19T06:52:15.658Z,101261.88
2022-12-19T06:54:19.694Z,101265.03
2022-12-19T06:56:23.179Z,101254.16
2022-12-19T06:58:26.977Z,101247.63
2022-12-19T07:00:30.847Z,101259.50
2022-12-19T07:02:34.662Z,101252.25
2022-12-19T07:04:42.797Z,101250.78
2022-12-19T07:06:49.413Z,101258.41
2022-12-19T07:08:54.602Z,101271.09
2022-12-19T07:10:59.081Z,101275.75
2022-12-19T07:13:02.642Z,101274.75
2022-12-19T07:15:06.944Z,101274.97
2022-12-19T07:17:10.693Z,101264.97
2022-12-19T07:19:14.806Z,101264.88
2022-12-19T07:21:18.321Z,101272.88
2022-12-19T07:23:24.350Z,101267.53
2022-12-19T07:25:27.716Z,101258.03
2022-12-19T07:27:35.662Z,101265.16
2022-12-19T07:29:39.656Z,101269.66
2022-12-19T07:31:43.435Z,101270.72
2022-12-19T07:33:46.849Z,101268.38
2022-12-19T07:35:50.264Z,101266.66
2022-12-19T07:37:54.007Z,101256.28
2022-12-19T07:39:58.834Z,101260.03
2022-12-19T07:42:02.205Z,101272.34
2022-12-19T07:44:16.457Z,101263.63
2022-12-19T07:46:20.121Z,101264.41
2022-12-19T07:48:24.391Z,101238.22
2022-12-19T07:50:27.799Z,101262.63
2022-12-19T07:52:31.744Z,101271.44
2022-12-19T07:54:35.312Z,101260.03
2022-12-19T07:56:40.045Z,101263.84
2022-12-19T07:58:44.580Z,101271.84
2022-12-19T08:00:55.194Z,101268.56
2022-12-19T08:02:59.789Z,101260.25
2022-12-19T08:05:04.416Z,101258.69
2022-12-19T08:07:07.958Z,101267.72
2022-12-19T08:09:11.858Z,101267.81
2022-12-19T08:11:17.820Z,101273.16
2022-12-19T08:13:23.483Z,101256.72
2022-12-19T08:15:27.331Z,101262.06
2022-12-19T08:17:31.191Z,101262.97
2022-12-19T08:19:34.491Z,101251.25
2022-12-19T08:21:38.003Z,101252.63
2022-12-19T08:23:41.677Z,101250.38
2022-12-19T08:25:45.053Z,101262.75
2022-12-19T08:27:48.451Z,101272.78
2022-12-19T08:29:54.221Z,101259.97
2022-12-19T08:31:57.906Z,101279.91
2022-12-19T08:34:01.263Z,101272.53
2022-12-19T08:36:06.004Z,101289.22
2022-12-19T08:38:10.038Z,101286.84
2022-12-19T08:40:13.736Z,101277.50
2022-12-19T08:42:17.476Z,101291.28
2022-12-19T08:44:21.030Z,101282.66
2022-12-19T08:46:25.940Z,101275.94
2022-12-19T08:48:29.598Z,101290.69
2022-12-19T08:50:32.898Z,101283.88
2022-12-19T08:52:36.508Z,101284.75
2022-12-19T08:54:39.984Z,101281.47
2022-12-19T08:56:46.728Z,101283.03
2022-12-19T08:58:52.925Z,101281.28
2022-12-19T09:01:05.279Z,101282.97
2022-12-19T09:03:10.424Z,101278.00
2022-12-19T09:05:59.780Z,101284.13
2022-12-19T09:07:40.759Z,101263.41
2022-12-19T09:09:44.137Z,101265.88
2022-12-19T09:11:48.463Z,101265.00
2022-12-19T09:13:51.887Z,101259.16
2022-12-19T09:16:05.921Z,101252.69
2022-12-19T09:18:10.569Z,101249.94
2022-12-19T09:20:16.889Z,101233.53
2022-12-19T09:22:27.770Z,101245.75
2022-12-19T09:24:32.935Z,101248.50
2022-12-19T09:26:38.517Z,101238.06
2022-12-19T09:28:42.676Z,101240.97
2022-12-19T09:30:46.322Z,101234.56
2022-12-19T09:32:50.193Z,101235.56
2022-12-19T09:34:54.998Z,101218.91
2022-12-19T09:36:58.732Z,101242.00
2022-12-19T09:39:02.148Z,101235.34
2022-12-19T09:41:29.078Z,101246.16
2022-12-19T09:43:49.521Z,101237.81
2022-12-19T09:46:02.844Z,101235.41
2022-12-19T09:48:23.570Z,101226.53
2022-12-19T09:50:40.314Z,101220.59
2022-12-19T09:52:51.406Z,101211.84
2022-12-19T09:55:02.120Z,101215.63
2022-12-19T09:57:12.827Z,101225.16
2022-12-19T09:59:31.817Z,101244.09
2022-12-19T10:01:56.684Z,101247.69
2022-12-19T10:04:04.373Z,101235.03
2022-12-19T10:07:16.109Z,101247.31
2022-12-19T10:09:14.432Z,101244.03
2022-12-19T10:12:35.668Z,101248.41
2022-12-19T10:13:50.336Z,101255.56
2022-12-19T10:16:04.752Z,101266.13
2022-12-19T10:18:27.547Z,101266.25
2022-12-19T10:20:38.459Z,101261.97
2022-12-19T10:22:52.506Z,101252.25
2022-12-19T10:25:21.050Z,101245.41
2022-12-19T10:27:32.367Z,101242.41
2022-12-19T10:29:49.865Z,101232.84
2022-12-19T10:31:59.810Z,101233.94
2022-12-19T10:34:16.364Z,101238.28
2022-12-19T10:36:19.707Z,101250.16
2022-12-19T10:38:30.102Z,101241.22
2022-12-19T10:40:40.679Z,101246.13
2022-12-19T10:42:52.382Z,101242.47
2022-12-19T10:44:58.353Z,101236.41
2022-12-19T10:47:01.737Z,101237.72
2022-12-19T10:49:14.457Z,101247.75
2022-12-19T10:51:24.491Z,101234.06
2022-12-19T10:53:32.084Z,101232.19
2022-12-19T10:55:43.909Z,101223.63
2022-12-19T10:57:47.334Z,101231.38
2022-12-19T10:59:58.803Z,101219.28
2022-12-19T11:02:04.897Z,101229.50
2022-12-19T11:04:28.554Z,101229.59
2022-12-19T11:06:51.085Z,101210.16
2022-12-19T11:09:18.965Z,101237.34
2022-12-19T11:14:29.803Z,101232.19
2022-12-19T11:17:49.588Z,101240.00
2022-12-19T11:20:02.735Z,101240.47
2022-12-19T11:27:48.711Z,101242.97
2022-12-19T11:29:26.190Z,101247.44
2022-12-19T11:29:35.298Z,101233.81
2022-12-19T11:30:37.983Z,101251.88
2022-12-19T11:30:45.728Z,101253.88
2022-12-19T11:32:20.617Z,101246.66
2022-12-19T11:33:25.391Z,101240.31
2022-12-19T11:35:36.934Z,101237.66
2022-12-19T11:37:47.062Z,101238.56
2022-12-19T11:39:56.542Z,101238.56
2022-12-19T11:42:08.175Z,101226.59
2022-12-19T11:44:22.174Z,101235.25
2022-12-19T11:46:38.025Z,101230.97
2022-12-19T11:48:47.906Z,101229.38
2022-12-19T11:51:00.973Z,101219.16
2022-12-19T11:53:18.888Z,101232.06
2022-12-19T11:55:27.214Z,101224.38
2022-12-19T11:57:32.714Z,101225.28
2022-12-19T11:59:37.752Z,101233.75
2022-12-19T12:01:49.558Z,101231.69
2022-12-19T12:04:09.791Z,101228.03
2022-12-19T12:06:17.416Z,101232.66
2022-12-19T12:11:13.838Z,101223.03
2022-12-19T12:19:11.267Z,101221.00
2022-12-19T12:23:13.242Z,101207.00
2022-12-19T12:31:15.118Z,101184.13
2022-12-19T12:31:15.729Z,101204.16
2022-12-19T12:31:31.630Z,101213.19
2022-12-19T12:31:31.853Z,101195.44
2022-12-19T12:31:50.629Z,101179.34
2022-12-19T12:31:51.536Z,101181.19
2022-12-19T12:35:38.054Z,101162.22
2022-12-19T12:35:56.638Z,101177.88
2022-12-19T12:40:06.885Z,101173.69
2022-12-19T12:42:18.825Z,101164.19
2022-12-19T12:44:32.845Z,101174.94
2022-12-19T12:46:41.278Z,101173.25
2022-12-19T12:48:51.104Z,101176.72
2022-12-19T12:50:55.565Z,101173.41
2022-12-19T12:53:03.406Z,101176.34
2022-12-19T12:55:15.377Z,101177.16
2022-12-19T12:57:21.573Z,101169.59
2022-12-19T12:59:30.057Z,101161.81
2022-12-19T13:01:38.926Z,101167.84
2022-12-19T13:03:43.608Z,101167.97
2022-12-19T13:06:04.268Z,101171.44
2022-12-19T13:08:32.622Z,101160.22
2022-12-19T13:10:36.746Z,101166.16
2022-12-19T13:13:02.421Z,101155.19
2022-12-19T13:15:34.376Z,101155.38
2022-12-19T13:18:02.807Z,101149.59
2022-12-19T13:20:40.924Z,101151.69
2022-12-19T13:23:02.343Z,101148.28
2022-12-19T13:25:51.148Z,101150.41
2022-12-19T13:27:57.725Z,101136.97
2022-12-19T13:30:20.764Z,101153.44
2022-12-19T13:32:24.699Z,101153.28
2022-12-19T13:34:37.053Z,101131.81
2022-12-19T13:39:55.756Z,101141.59
2022-12-19T13:39:58.423Z,101130.84
2022-12-19T13:42:21.472Z,101143.38
2022-12-19T13:44:25.173Z,101156.38
2022-12-19T13:46:39.833Z,101150.41
2022-12-19T13:48:47.623Z,101141.19
2022-12-19T13:50:52.345Z,101147.03
2022-12-19T13:52:55.661Z,101149.69
2022-12-19T13:54:59.950Z,101140.16
2022-12-19T13:57:09.604Z,101143.44
2022-12-19T13:59:14.625Z,101135.88
2022-12-19T14:01:22.782Z,101131.25
2022-12-19T14:03:38.018Z,101138.28
2022-12-19T14:06:16.966Z,101141.19
2022-12-19T14:08:07.439Z,101135.16
2022-12-19T14:11:34.885Z,101131.41
2022-12-19T14:13:50.132Z,101107.34
2022-12-19T14:15:32.428Z,101114.22
2022-12-19T14:17:35.764Z,101115.00
2022-12-19T14:19:41.331Z,101101.69
2022-12-19T14:22:06.856Z,101103.41
2022-12-19T14:24:15.274Z,101088.25
2022-12-19T14:28:20.707Z,101103.78
2022-12-19T14:28:55.803Z,101103.31
2022-12-19T14:31:01.648Z,101082.78
2022-12-19T14:33:45.774Z,101106.00
2022-12-19T14:36:07.636Z,101112.94
2022-12-19T14:39:22.761Z,101097.63
2022-12-19T14:40:28.052Z,101104.97
2022-12-19T14:43:57.176Z,101098.13
2022-12-19T14:53:51.244Z,101112.66
2022-12-19T14:54:04.973Z,101081.03
2022-12-19T14:54:09.146Z,101109.25
2022-12-19T14:54:42.091Z,101106.03
2022-12-19T14:56:17.807Z,101103.13
2022-12-19T14:58:55.935Z,101107.78
2022-12-19T15:00:51.016Z,101106.94
2022-12-19T15:02:54.751Z,101105.06
2022-12-19T15:05:03.759Z,101103.44
2022-12-19T15:07:12.291Z,101099.41
2022-12-19T15:10:58.509Z,101100.13
2022-12-19T15:14:47.461Z,101087.19
2022-12-19T15:14:56.032Z,101089.03
2022-12-19T15:17:04.284Z,101095.91
2022-12-19T15:19:13.659Z,101097.69
2022-12-19T15:21:16.973Z,101095.16
2022-12-19T15:23:22.540Z,101086.59
2022-12-19T15:26:02.295Z,101092.19
2022-12-19T15:27:49.689Z,101084.34
2022-12-19T15:29:53.176Z,101063.88
2022-12-19T15:31:56.689Z,101067.56
2022-12-19T15:34:33.143Z,101058.28
2022-12-19T15:36:25.037Z,101069.53
2022-12-19T15:38:28.404Z,101060.06
2022-12-19T15:40:31.734Z,101075.09
2022-12-19T15:42:35.711Z,101068.19
2022-12-19T15:44:42.235Z,101067.63
2022-12-19T15:46:49.253Z,101064.22
2022-12-19T15:48:53.018Z,101055.66
2022-12-19T15:50:56.325Z,101058.72
2022-12-19T15:53:01.978Z,101022.91
2022-12-19T15:55:06.254Z,101045.22
2022-12-19T15:57:19.733Z,101043.50
2022-12-19T15:59:34.810Z,101049.38
2022-12-19T16:01:40.592Z,101043.94
2022-12-19T16:03:44.302Z,101042.16
2022-12-19T16:05:48.462Z,101035.72
2022-12-19T16:07:52.266Z,101057.69
2022-12-19T16:09:57.130Z,101064.50
2022-12-19T16:12:00.548Z,101068.28
2022-12-19T16:14:03.895Z,101075.16
2022-12-19T16:16:14.971Z,101067.41
2022-12-19T16:18:19.897Z,101077.09
2022-12-19T16:20:25.455Z,101039.78
2022-12-19T16:22:30.285Z,101067.34
2022-12-19T16:24:33.595Z,101060.63
2022-12-19T16:26:40.721Z,101057.28
2022-12-19T16:28:44.103Z,101056.25
2022-12-19T16:30:47.736Z,101053.00
2022-12-19T16:32:51.483Z,101040.53
2022-12-19T16:34:55.144Z,101048.63
2022-12-19T16:36:58.444Z,101048.63
2022-12-19T16:39:01.882Z,101046.03
2022-12-19T16:41:05.300Z,101047.06
2022-12-19T16:43:16.199Z,101053.84
2022-12-19T16:45:21.306Z,101059.19
2022-12-19T16:47:24.917Z,101067.84
2022-12-19T16:49:28.599Z,101080.94
2022-12-19T16:51:32.215Z,101076.03
2022-12-19T16:53:35.564Z,101070.41
2022-12-19T16:55:39.187Z,101076.56
2022-12-19T16:57:43.722Z,101075.66
2022-12-19T16:59:49.469Z,101075.06
2022-12-19T17:01:53.218Z,101076.13
2022-12-19T17:03:56.817Z,101092.63
2022-12-19T17:06:01.704Z,101086.38
2022-12-19T17:08:12.603Z,101088.19
2022-12-19T17:10:21.354Z,101084.94
2022-12-19T17:12:29.645Z,101062.38
2022-12-19T17:14:33.314Z,101068.66
2022-12-19T17:16:38.566Z,101054.00
2022-12-19T17:18:43.806Z,101067.91
2022-12-19T17:20:47.615Z,101062.88
2022-12-19T17:22:50.963Z,101064.66
2022-12-19T17:24:54.360Z,101057.78
2022-12-19T17:26:57.641Z,101059.31
2022-12-19T17:29:00.991Z,101064.75
2022-12-19T17:31:11.750Z,101084.88
2022-12-19T17:33:17.824Z,101070.72
2022-12-19T17:35:28.042Z,101088.22
2022-12-19T17:37:31.963Z,101084.94
2022-12-19T17:39:35.547Z,101077.16
2022-12-19T17:41:38.901Z,101077.31
2022-12-19T17:43:42.262Z,101074.72
2022-12-19T17:45:46.097Z,101066.13
2022-12-19T17:47:50.243Z,101067.09
2022-12-19T17:49:54.996Z,101077.44
2022-12-19T17:52:00.814Z,101072.28
2022-12-19T17:54:04.429Z,101090.56
2022-12-19T17:56:13.527Z,101067.47
2022-12-19T17:58:17.432Z,101090.66
2022-12-19T18:00:29.932Z,101069.69
2022-12-19T18:02:36.091Z,101083.91
2022-12-19T18:04:39.522Z,101093.47
2022-12-19T18:06:44.616Z,101086.56
2022-12-19T18:08:48.065Z,101081.19
2022-12-19T18:10:51.503Z,101083.78
2022-12-19T18:12:55.163Z,101079.63
2022-12-19T18:14:58.769Z,101082.13
2022-12-19T18:17:03.014Z,101071.75
2022-12-19T18:19:06.738Z,101077.09
2022-12-19T18:21:14.483Z,101075.00
2022-12-19T18:23:22.544Z,101064.50
2022-12-19T18:25:28.251Z,101067.09
2022-12-19T18:27:31.928Z,101073.16
2022-12-19T18:29:35.559Z,101066.22
2022-12-19T18:31:43.451Z,101067.19
2022-12-19T18:33:52.882Z,101082.72
2022-12-19T18:35:56.306Z,101075.69
2022-12-19T18:38:01.458Z,101062.94
2022-12-19T18:40:20.248Z,101067.22
2022-12-19T18:42:26.824Z,101071.84
2022-12-19T18:44:30.072Z,101074.63
2022-12-19T18:46:34.332Z,101080.84
2022-12-19T18:48:38.544Z,101081.91
2022-12-19T18:50:41.996Z,101089.00
2022-12-19T18:52:45.465Z,101078.78
2022-12-19T18:54:48.785Z,101087.75
2022-12-19T18:56:53.590Z,101079.06
2022-12-19T18:58:56.958Z,101056.06
2022-12-19T19:01:01.745Z,101011.72
2022-12-19T19:03:07.456Z,101067.00
2022-12-19T19:05:16.784Z,101068.75
2022-12-19T19:07:20.081Z,101073.88
2022-12-19T19:09:23.994Z,101074.84
2022-12-19T19:11:30.183Z,101083.75
2022-12-19T19:13:34.838Z,101081.94
2022-12-19T19:15:43.498Z,101078.69
2022-12-19T19:17:49.322Z,101082.31
2022-12-19T19:19:52.643Z,101089.34
2022-12-19T19:21:56.105Z,101093.66
2022-12-19T19:24:04.189Z,101094.91
2022-12-19T19:26:07.716Z,101084.72
2022-12-19T19:28:11.173Z,101088.56
2022-12-19T19:30:16.185Z,101092.25
2022-12-19T19:32:20.080Z,101091.59
2022-12-19T19:34:28.360Z,101086.53
2022-12-19T19:36:35.874Z,101102.38
2022-12-19T19:38:41.446Z,101098.97
2022-12-19T19:40:44.879Z,101097.47
2022-12-19T19:42:49.132Z,101093.47
2022-12-19T19:44:52.631Z,101078.25
2022-12-19T19:46:57.432Z,101086.81
2022-12-19T19:49:01.175Z,101087.84
2022-12-19T19:51:05.414Z,101088.78
2022-12-19T19:53:08.933Z,101095.41
2022-12-19T19:55:14.452Z,101108.06
2022-12-19T19:57:17.918Z,101106.41
2022-12-19T19:59:21.369Z,101112.41
2022-12-19T20:01:24.814Z,101109.75
2022-12-19T20:03:30.002Z,101105.47
2022-12-19T20:05:33.988Z,101111.66
2022-12-19T20:07:37.437Z,101113.44
2022-12-19T20:09:40.779Z,101108.38
2022-12-19T20:11:44.185Z,101111.88
2022-12-19T20:13:47.526Z,101109.19
2022-12-19T20:15:51.223Z,101106.59
2022-12-19T20:17:54.573Z,101106.75
2022-12-19T20:19:59.478Z,101115.38
2022-12-19T20:22:02.847Z,101114.47
2022-12-19T20:24:06.759Z,101107.44
2022-12-19T20:26:11.257Z,101110.22
2022-12-19T20:28:14.900Z,101078.34
2022-12-19T20:30:18.384Z,101100.81
2022-12-19T20:32:21.748Z,101092.81
2022-12-19T20:34:25.418Z,101088.63
2022-12-19T20:36:30.181Z,101092.88
2022-12-19T20:38:33.536Z,101099.03
2022-12-19T20:40:36.924Z,101105.94
2022-12-19T20:42:40.261Z,101101.75
2022-12-19T20:44:43.671Z,101102.56
2022-12-19T20:46:47.203Z,101088.84
2022-12-19T20:48:51.223Z,101089.00
2022-12-19T20:50:56.651Z,101081.06
2022-12-19T20:53:01.599Z,101087.34
2022-12-19T20:55:05.485Z,101081.13
2022-12-19T20:57:08.822Z,101085.63
2022-12-19T20:59:12.343Z,101087.19
2022-12-19T21:01:18.937Z,101093.28
2022-12-19T21:03:28.289Z,101093.97
2022-12-19T21:05:32.691Z,101098.78
2022-12-19T21:07:36.099Z,101101.41
2022-12-19T21:09:44.788Z,101091.97
2022-12-19T21:11:48.225Z,101106.06
2022-12-19T21:13:51.569Z,101109.53
2022-12-19T21:15:58.367Z,101112.16
2022-12-19T21:18:02.459Z,101115.06
2022-12-19T21:20:07.327Z,101111.84
2022-12-19T21:22:10.960Z,101099.34
2022-12-19T21:24:14.337Z,101116.41
2022-12-19T21:26:21.736Z,101105.13
2022-12-19T21:28:25.196Z,101097.31
2022-12-19T21:30:28.517Z,101104.25
2022-12-19T21:32:31.920Z,101110.13
2022-12-19T21:34:35.261Z,101101.97
2022-12-19T21:36:39.547Z,101091.56
2022-12-19T21:38:43.363Z,101095.91
2022-12-19T21:40:46.770Z,101094.16
2022-12-19T21:42:51.493Z,101023.34
2022-12-19T21:44:54.799Z,101047.19
2022-12-19T21:46:58.198Z,101086.38
2022-12-19T21:49:02.830Z,101093.31
2022-12-19T21:51:06.796Z,101100.31
2022-12-19T21:53:10.782Z,101093.41
2022-12-19T21:55:14.213Z,101089.13
2022-12-19T21:57:17.721Z,101083.94
2022-12-19T21:59:22.614Z,101058.72
2022-12-19T22:01:27.699Z,101066.84
2022-12-19T22:03:31.434Z,101073.06
2022-12-19T22:05:35.131Z,101068.72
2022-12-19T22:07:38.605Z,101066.22
2022-12-19T22:09:42.621Z,101068.81
2022-12-19T22:11:47.007Z,101070.63
2022-12-19T22:13:51.419Z,101078.50
2022-12-19T22:16:00.778Z,101066.22
2022-12-19T22:18:04.211Z,101072.66
2022-12-19T22:20:10.039Z,101075.28
2022-12-19T22:22:13.328Z,101067.38
2022-12-19T22:24:19.909Z,101073.56
2022-12-19T22:26:24.688Z,101071.91
2022-12-19T22:28:30.453Z,101073.56
2022-12-19T22:30:35.191Z,101081.53
2022-12-19T22:32:39.926Z,101084.25
2022-12-19T22:34:43.326Z,101087.38
2022-12-19T22:36:47.698Z,101090.22
2022-12-19T22:38:51.440Z,101078.97
2022-12-19T22:40:54.882Z,101079.94
2022-12-19T22:42:58.268Z,101079.28
2022-12-19T22:45:01.629Z,101066.81
2022-12-19T22:47:05.186Z,101086.44
2022-12-19T22:49:12.036Z,101085.63
2022-12-19T22:51:16.757Z,101092.78
2022-12-19T22:53:20.346Z,101090.19
2022-12-19T22:55:23.782Z,101076.25
2022-12-19T22:57:27.074Z,101087.69
2022-12-19T22:59:30.346Z,101061.63
2022-12-19T23:01:36.670Z,101059.16
2022-12-19T23:03:40.338Z,101066.09
2022-12-19T23:05:51.592Z,101073.91
2022-12-19T23:07:55.357Z,101070.34
2022-12-19T23:09:58.681Z,101066.84
2022-12-19T23:12:01.949Z,101068.56
2022-12-19T23:14:07.632Z,101068.78
2022-12-19T23:16:13.193Z,101056.13
2022-12-19T23:18:16.620Z,101052.81
2022-12-19T23:20:19.961Z,101049.75
2022-12-19T23:22:24.617Z,101046.91
2022-12-19T23:24:27.934Z,101036.31
2022-12-19T23:26:35.118Z,101034.03
2022-12-19T23:28:38.554Z,101017.81
2022-12-19T23:30:41.834Z,101020.63
2022-12-19T23:32:50.500Z,101028.88
2022-12-19T23:34:54.415Z,101016.88
2022-12-19T23:37:13.166Z,101016.88
2022-12-19T23:39:18.078Z,101005.63
2022-12-19T23:41:21.621Z,101001.91
2022-12-19T23:43:24.988Z,100996.19
2022-12-19T23:45:28.424Z,100993.81
2022-12-19T23:47:31.888Z,100990.47
2022-12-19T23:49:35.320Z,101004.03
2022-12-19T23:51:38.725Z,101006.41
2022-12-19T23:53:42.207Z,100996.19
2022-12-19T23:55:50.142Z,101007.53
2022-12-19T23:57:53.433Z,100997.22
2022-12-19T23:59:56.745Z,100994.69
